createdAt,value
2016-02-26T00:00:14.576Z,0
2016-02-26T00:01:14.578Z,0
2016-02-26T00:02:14.597Z,0
2016-02-26T00:03:14.584Z,0
2016-02-26T00:04:14.571Z,0
2016-02-26T00:05:14.573Z,0
2016-02-26T00:06:14.592Z,0
2016-02-26T00:07:14.595Z,0
2016-02-26T00:08:14.565Z,0
2016-02-26T00:09:14.568Z,0
2016-02-26T00:10:14.617Z,0
2016-02-26T00:11:14.558Z,0
2016-02-26T00:12:14.639Z,0
2016-02-26T00:13:14.564Z,0
2016-02-26T00:14:14.597Z,0
2016-02-26T00:15:14.601Z,0
2016-02-26T00:16:14.650Z,0
2016-02-26T00:17:14.590Z,0
2016-02-26T00:18:14.561Z,0
2016-02-26T00:19:14.564Z,0
2016-02-26T00:20:14.567Z,0
2016-02-26T00:21:14.570Z,0
2016-02-26T00:22:14.588Z,0
2016-02-26T00:23:14.575Z,0
2016-02-26T00:24:14.561Z,0
2016-02-26T00:25:14.596Z,0
2016-02-26T00:26:14.567Z,0
2016-02-26T00:27:14.460Z,0
2016-02-26T00:28:14.589Z,0
2016-02-26T00:29:14.560Z,0
2016-02-26T00:30:14.546Z,0
2016-02-26T00:31:14.580Z,0
2016-02-26T00:32:14.552Z,0
2016-02-26T00:33:14.618Z,0
2016-02-26T00:34:14.573Z,0
2016-02-26T00:35:14.560Z,0
2016-02-26T00:36:14.579Z,0
2016-02-26T00:37:14.581Z,0
2016-02-26T00:38:14.553Z,0
2016-02-26T00:39:14.570Z,0
2016-02-26T00:40:14.573Z,0
2016-02-26T00:41:14.561Z,0
2016-02-26T00:42:14.595Z,0
2016-02-26T00:43:14.566Z,0
2016-02-26T00:44:14.553Z,0
2016-02-26T00:45:14.587Z,0
2016-02-26T00:46:14.543Z,0
2016-02-26T00:47:14.561Z,0
2016-02-26T00:48:14.564Z,0
2016-02-26T00:49:14.566Z,0
2016-02-26T00:50:14.553Z,0
2016-02-26T00:51:14.588Z,0
2016-02-26T00:52:14.575Z,0
2016-02-26T00:53:14.547Z,0
2016-02-26T00:54:14.564Z,0
2016-02-26T00:55:14.552Z,0
2016-02-26T00:56:14.601Z,0
2016-02-26T00:57:14.557Z,0
2016-02-26T00:58:14.560Z,0
2016-02-26T00:59:14.547Z,0
2016-02-26T01:00:14.566Z,0
2016-02-26T01:01:14.552Z,0
2016-02-26T01:02:14.554Z,0
2016-02-26T01:03:14.573Z,0
2016-02-26T01:04:14.561Z,0
2016-02-26T01:05:14.547Z,0
2016-02-26T01:06:14.550Z,0
2016-02-26T01:07:14.537Z,0
2016-02-26T01:08:14.540Z,0
2016-02-26T01:09:14.557Z,0
2016-02-26T01:10:14.545Z,0
2016-02-26T01:11:14.548Z,0
2016-02-26T01:12:14.523Z,0
2016-02-26T01:13:14.514Z,0
2016-02-26T01:14:14.520Z,0
2016-02-26T01:15:14.495Z,0
2016-02-26T01:16:14.516Z,0
2016-02-26T01:17:14.514Z,0
2016-02-26T01:18:14.481Z,0
2016-02-26T01:19:14.465Z,0
2016-02-26T01:20:14.463Z,0
2016-02-26T01:21:14.461Z,0
2016-02-26T01:22:14.463Z,0
2016-02-26T01:23:14.464Z,0
2016-02-26T01:24:14.465Z,0
2016-02-26T01:25:14.450Z,0
2016-02-26T01:26:14.451Z,0
2016-02-26T01:27:14.437Z,0
2016-02-26T01:28:14.314Z,0
2016-02-26T01:29:14.473Z,0
2016-02-26T01:30:14.443Z,0
2016-02-26T01:31:14.508Z,0
2016-02-26T01:32:14.432Z,0
2016-02-26T01:33:14.435Z,0
2016-02-26T01:34:14.280Z,0
2016-02-26T01:35:14.456Z,0
2016-02-26T01:36:14.443Z,0
2016-02-26T01:37:14.477Z,0
2016-02-26T01:38:14.463Z,0
2016-02-26T01:39:14.482Z,0
2016-02-26T01:40:14.454Z,0
2016-02-26T01:41:14.457Z,0
2016-02-26T01:42:14.459Z,0
2016-02-26T01:43:14.462Z,0
2016-02-26T01:44:14.449Z,0
2016-02-26T01:45:14.435Z,0
2016-02-26T01:46:14.438Z,0
2016-02-26T01:47:14.441Z,0
2016-02-26T01:48:14.460Z,0
2016-02-26T01:49:14.431Z,0
2016-02-26T01:50:14.449Z,0
2016-02-26T01:51:14.451Z,0
2016-02-26T01:52:14.454Z,0
2016-02-26T01:53:14.442Z,0
2016-02-26T01:54:14.445Z,0
2016-02-26T01:55:14.431Z,0
2016-02-26T01:56:14.481Z,0
2016-02-26T01:57:14.453Z,0
2016-02-26T01:58:14.440Z,0
2016-02-26T01:59:14.442Z,0
2016-02-26T02:00:14.430Z,0
2016-02-26T02:01:14.432Z,0
2016-02-26T02:02:14.435Z,0
2016-02-26T02:03:14.438Z,0
2016-02-26T02:04:14.424Z,0
2016-02-26T02:05:14.427Z,0
2016-02-26T02:06:14.430Z,0
2016-02-26T02:07:14.433Z,0
2016-02-26T02:08:14.451Z,0
2016-02-26T02:09:14.469Z,0
2016-02-26T02:10:14.440Z,0
2016-02-26T02:11:14.444Z,0
2016-02-26T02:12:14.430Z,0
2016-02-26T02:13:14.433Z,0
2016-02-26T02:14:14.435Z,0
2016-02-26T02:15:14.423Z,0
2016-02-26T02:16:14.426Z,0
2016-02-26T02:17:14.412Z,0
2016-02-26T02:18:14.431Z,0
2016-02-26T02:19:14.293Z,0
2016-02-26T02:20:14.420Z,0
2016-02-26T02:21:14.439Z,0
2016-02-26T02:22:14.442Z,0
2016-02-26T02:23:14.444Z,0
2016-02-26T02:24:14.431Z,0
2016-02-26T02:25:14.418Z,0
2016-02-26T02:26:14.453Z,0
2016-02-26T02:27:14.423Z,0
2016-02-26T02:28:14.442Z,0
2016-02-26T02:29:14.429Z,0
2016-02-26T02:30:14.417Z,0
2016-02-26T02:31:14.403Z,0
2016-02-26T02:32:14.422Z,0
2016-02-26T02:33:14.439Z,0
2016-02-26T02:34:14.428Z,0
2016-02-26T02:35:14.430Z,0
2016-02-26T02:36:14.448Z,0
2016-02-26T02:37:14.435Z,0
2016-02-26T02:38:14.422Z,0
2016-02-26T02:39:14.409Z,0
2016-02-26T02:40:14.412Z,0
2016-02-26T02:41:14.477Z,0
2016-02-26T02:42:14.433Z,0
2016-02-26T02:43:14.467Z,0
2016-02-26T02:44:14.423Z,0
2016-02-26T02:45:14.409Z,0
2016-02-26T02:46:14.412Z,0
2016-02-26T02:47:14.416Z,0
2016-02-26T02:48:14.418Z,0
2016-02-26T02:49:14.421Z,0
2016-02-26T02:50:14.267Z,0
2016-02-26T02:51:14.410Z,0
2016-02-26T02:52:14.381Z,0
2016-02-26T02:53:14.415Z,0
2016-02-26T02:54:14.434Z,0
2016-02-26T02:55:14.437Z,0
2016-02-26T02:56:14.440Z,0
2016-02-26T02:57:14.411Z,0
2016-02-26T02:58:14.413Z,0
2016-02-26T02:59:14.416Z,0
2016-02-26T03:00:14.420Z,0
2016-02-26T03:01:14.406Z,0
2016-02-26T03:02:14.440Z,0
2016-02-26T03:03:14.411Z,0
2016-02-26T03:04:14.414Z,0
2016-02-26T03:05:14.406Z,0
2016-02-26T03:06:14.440Z,0
2016-02-26T03:07:14.380Z,0
2016-02-26T03:08:14.399Z,0
2016-02-26T03:09:14.449Z,0
2016-02-26T03:10:14.389Z,0
2016-02-26T03:11:14.407Z,0
2016-02-26T03:12:14.395Z,0
2016-02-26T03:13:14.397Z,0
2016-02-26T03:14:14.400Z,0
2016-02-26T03:15:14.403Z,0
2016-02-26T03:16:14.421Z,0
2016-02-26T03:17:14.392Z,0
2016-02-26T03:18:14.394Z,0
2016-02-26T03:19:14.397Z,0
2016-02-26T03:20:14.400Z,0
2016-02-26T03:21:14.403Z,0
2016-02-26T03:22:14.390Z,0
2016-02-26T03:23:14.408Z,0
2016-02-26T03:24:14.395Z,0
2016-02-26T03:25:14.430Z,0
2016-02-26T03:26:14.385Z,0
2016-02-26T03:27:14.419Z,0
2016-02-26T03:28:14.390Z,0
2016-02-26T03:29:14.378Z,0
2016-02-26T03:30:14.396Z,0
2016-02-26T03:31:14.384Z,0
2016-02-26T03:32:14.401Z,0
2016-02-26T03:33:14.389Z,0
2016-02-26T03:34:14.406Z,0
2016-02-26T03:35:14.378Z,0
2016-02-26T03:36:14.459Z,0
2016-02-26T03:37:14.367Z,0
2016-02-26T03:38:14.418Z,0
2016-02-26T03:39:14.373Z,0
2016-02-26T03:40:14.392Z,0
2016-02-26T03:41:14.378Z,0
2016-02-26T03:42:14.413Z,0
2016-02-26T03:43:14.416Z,0
2016-02-26T03:44:14.387Z,0
2016-02-26T03:45:14.389Z,0
2016-02-26T03:46:14.392Z,0
2016-02-26T03:47:14.379Z,0
2016-02-26T03:48:14.382Z,0
2016-02-26T03:49:14.369Z,0
2016-02-26T03:50:14.387Z,0
2016-02-26T03:51:14.391Z,0
2016-02-26T03:52:14.408Z,0
2016-02-26T03:53:14.379Z,0
2016-02-26T03:54:14.382Z,0
2016-02-26T03:55:14.385Z,0
2016-02-26T03:56:14.404Z,0
2016-02-26T03:57:14.375Z,0
2016-02-26T03:58:14.252Z,0
2016-02-26T03:59:14.380Z,0
2016-02-26T04:00:14.382Z,0
2016-02-26T04:01:14.385Z,0
2016-02-26T04:02:14.373Z,0
2016-02-26T04:03:14.360Z,0
2016-02-26T04:04:14.362Z,0
2016-02-26T04:05:14.365Z,0
2016-02-26T04:06:14.367Z,0
2016-02-26T04:07:14.370Z,0
2016-02-26T04:08:14.358Z,0
2016-02-26T04:09:14.375Z,0
2016-02-26T04:10:14.363Z,0
2016-02-26T04:11:14.381Z,0
2016-02-26T04:12:14.368Z,0
2016-02-26T04:13:14.386Z,0
2016-02-26T04:14:14.375Z,0
2016-02-26T04:15:14.392Z,0
2016-02-26T04:16:14.348Z,0
2016-02-26T04:17:14.397Z,0
2016-02-26T04:18:14.353Z,0
2016-02-26T04:19:14.387Z,0
2016-02-26T04:20:14.358Z,0
2016-02-26T04:21:14.377Z,0
2016-02-26T04:22:14.364Z,0
2016-02-26T04:23:14.366Z,0
2016-02-26T04:24:14.197Z,0
2016-02-26T04:25:14.215Z,0
2016-02-26T04:26:14.390Z,0
2016-02-26T04:27:14.410Z,0
2016-02-26T04:28:14.240Z,0
2016-02-26T04:29:14.336Z,0
2016-02-26T04:30:14.338Z,0
2016-02-26T04:31:14.341Z,0
2016-02-26T04:32:14.406Z,0
2016-02-26T04:33:14.347Z,0
2016-02-26T04:34:14.349Z,0
2016-02-26T04:35:14.368Z,0
2016-02-26T04:36:14.354Z,0
2016-02-26T04:37:14.357Z,0
2016-02-26T04:38:14.406Z,0
2016-02-26T04:39:14.362Z,0
2016-02-26T04:40:14.335Z,0
2016-02-26T04:41:14.353Z,0
2016-02-26T04:42:14.339Z,0
2016-02-26T04:43:14.358Z,0
2016-02-26T04:44:14.330Z,0
2016-02-26T04:45:14.333Z,0
2016-02-26T04:46:14.367Z,0
2016-02-26T04:47:14.338Z,0
2016-02-26T04:48:14.341Z,0
2016-02-26T04:49:14.343Z,0
2016-02-26T04:50:14.408Z,0
2016-02-26T04:51:14.332Z,0
2016-02-26T04:52:14.319Z,0
2016-02-26T04:53:14.355Z,0
2016-02-26T04:54:14.341Z,0
2016-02-26T04:55:14.327Z,0
2016-02-26T04:56:14.315Z,0
2016-02-26T04:57:14.332Z,0
2016-02-26T04:58:14.399Z,0
2016-02-26T04:59:14.339Z,0
2016-02-26T05:00:14.357Z,0
2016-02-26T05:01:14.329Z,0
2016-02-26T05:02:14.331Z,0
2016-02-26T05:03:14.334Z,0
2016-02-26T05:04:14.336Z,0
2016-02-26T05:05:14.173Z,0
2016-02-26T05:06:14.332Z,0
2016-02-26T05:07:14.351Z,0
2016-02-26T05:08:14.321Z,0
2016-02-26T05:09:14.324Z,0
2016-02-26T05:10:14.327Z,0
2016-02-26T05:11:14.315Z,0
2016-02-26T05:12:14.317Z,0
2016-02-26T05:13:14.335Z,0
2016-02-26T05:14:14.323Z,0
2016-02-26T05:15:14.309Z,0
2016-02-26T05:16:14.328Z,0
2016-02-26T05:17:14.158Z,0
2016-02-26T05:18:14.318Z,0
2016-02-26T05:19:14.320Z,0
2016-02-26T05:20:14.323Z,0
2016-02-26T05:21:14.341Z,0
2016-02-26T05:22:14.328Z,0
2016-02-26T05:23:14.347Z,0
2016-02-26T05:24:14.302Z,0
2016-02-26T05:25:14.320Z,0
2016-02-26T05:26:14.308Z,0
2016-02-26T05:27:14.342Z,0
2016-02-26T05:28:14.328Z,0
2016-02-26T05:29:14.347Z,0
2016-02-26T05:30:14.302Z,0
2016-02-26T05:31:14.306Z,0
2016-02-26T05:32:14.308Z,0
2016-02-26T05:33:14.310Z,0
2016-02-26T05:34:14.329Z,0
2016-02-26T05:35:14.316Z,0
2016-02-26T05:36:14.304Z,0
2016-02-26T05:37:14.307Z,0
2016-02-26T05:38:14.309Z,0
2016-02-26T05:39:14.296Z,0
2016-02-26T05:40:14.314Z,0
2016-02-26T05:41:14.301Z,0
2016-02-26T05:42:14.303Z,0
2016-02-26T05:43:14.322Z,0
2016-02-26T05:44:14.309Z,0
2016-02-26T05:45:14.296Z,0
2016-02-26T05:46:14.331Z,0
2016-02-26T05:47:14.301Z,0
2016-02-26T05:48:14.289Z,0
2016-02-26T05:49:14.307Z,0
2016-02-26T05:50:14.310Z,0
2016-02-26T05:51:14.312Z,0
2016-02-26T05:52:14.284Z,0
2016-02-26T05:53:14.303Z,0
2016-02-26T05:54:14.306Z,0
2016-02-26T05:55:14.136Z,0
2016-02-26T05:56:14.294Z,0
2016-02-26T05:57:14.282Z,0
2016-02-26T05:58:14.347Z,0
2016-02-26T05:59:14.271Z,0
2016-02-26T06:00:14.289Z,0
2016-02-26T06:01:14.292Z,0
2016-02-26T06:02:14.327Z,0
2016-02-26T06:03:14.283Z,0
2016-02-26T06:04:14.300Z,0
2016-02-26T06:05:14.116Z,0
2016-02-26T06:06:14.290Z,0
2016-02-26T06:07:14.277Z,0
2016-02-26T06:08:14.296Z,5
2016-02-26T06:09:14.299Z,5
2016-02-26T06:10:14.301Z,5
2016-02-26T06:11:14.273Z,5
2016-02-26T06:12:14.275Z,5
2016-02-26T06:13:14.278Z,5
2016-02-26T06:14:14.265Z,5
2016-02-26T06:15:14.268Z,10
2016-02-26T06:16:14.271Z,10
2016-02-26T06:17:14.273Z,10
2016-02-26T06:18:14.276Z,10
2016-02-26T06:19:14.294Z,10
2016-02-26T06:20:14.281Z,15
2016-02-26T06:21:14.267Z,15
2016-02-26T06:22:14.271Z,15
2016-02-26T06:23:14.273Z,20
2016-02-26T06:24:14.276Z,20
2016-02-26T06:25:14.278Z,25
2016-02-26T06:26:14.281Z,25
2016-02-26T06:27:14.269Z,35
2016-02-26T06:28:14.271Z,40
2016-02-26T06:29:14.275Z,45
2016-02-26T06:30:14.261Z,50
2016-02-26T06:31:14.280Z,50
2016-02-26T06:32:14.250Z,50
2016-02-26T06:33:14.300Z,55
2016-02-26T06:34:14.255Z,60
2016-02-26T06:35:14.275Z,60
2016-02-26T06:36:14.261Z,65
2016-02-26T06:37:14.280Z,70
2016-02-26T06:38:14.251Z,75
2016-02-26T06:39:14.254Z,75
2016-02-26T06:40:14.256Z,80
2016-02-26T06:41:14.244Z,80
2016-02-26T06:42:14.259Z,85
2016-02-26T06:43:14.245Z,90
2016-02-26T06:44:14.247Z,95
2016-02-26T06:45:14.250Z,100
2016-02-26T06:46:14.254Z,105
2016-02-26T06:47:14.256Z,110
2016-02-26T06:48:14.258Z,115
2016-02-26T06:49:14.277Z,115
2016-02-26T06:50:14.264Z,120
2016-02-26T06:51:14.283Z,125
2016-02-26T06:52:14.269Z,130
2016-02-26T06:53:14.257Z,130
2016-02-26T06:54:14.244Z,140
2016-02-26T06:55:14.247Z,145
2016-02-26T06:56:14.265Z,140
2016-02-26T06:57:14.267Z,145
2016-02-26T06:58:14.254Z,155
2016-02-26T06:59:14.241Z,160
2016-02-26T07:00:14.244Z,165
2016-02-26T07:01:14.247Z,170
2016-02-26T07:02:14.249Z,175
2016-02-26T07:03:14.268Z,185
2016-02-26T07:04:14.270Z,190
2016-02-26T07:05:14.257Z,195
2016-02-26T07:06:14.260Z,200
2016-02-26T07:07:14.263Z,200
2016-02-26T07:08:14.282Z,205
2016-02-26T07:09:14.253Z,215
2016-02-26T07:10:14.270Z,220
2016-02-26T07:11:14.273Z,220
2016-02-26T07:12:14.277Z,225
2016-02-26T07:13:14.279Z,230
2016-02-26T07:14:14.282Z,235
2016-02-26T07:15:14.300Z,245
2016-02-26T07:16:14.256Z,245
2016-02-26T07:17:14.258Z,245
2016-02-26T07:18:14.261Z,255
2016-02-26T07:19:14.263Z,255
2016-02-26T07:20:14.267Z,260
2016-02-26T07:21:14.286Z,270
2016-02-26T07:22:14.272Z,280
2016-02-26T07:23:14.275Z,285
2016-02-26T07:24:14.277Z,285
2016-02-26T07:25:14.281Z,285
2016-02-26T07:26:14.299Z,290
2016-02-26T07:27:14.302Z,285
2016-02-26T07:28:14.288Z,255
2016-02-26T07:29:14.354Z,240
2016-02-26T07:30:14.324Z,270
2016-02-26T07:31:14.280Z,305
2016-02-26T07:32:14.282Z,315
2016-02-26T07:33:14.302Z,325
2016-02-26T07:34:14.289Z,320
2016-02-26T07:35:14.291Z,320
2016-02-26T07:36:14.279Z,335
2016-02-26T07:37:14.296Z,340
2016-02-26T07:38:14.299Z,335
2016-02-26T07:39:14.318Z,335
2016-02-26T07:40:14.321Z,340
2016-02-26T07:41:14.323Z,340
2016-02-26T07:42:14.310Z,340
2016-02-26T07:43:14.312Z,335
2016-02-26T07:44:14.331Z,330
2016-02-26T07:45:14.302Z,295
2016-02-26T07:46:14.321Z,205
2016-02-26T07:47:14.324Z,150
2016-02-26T07:48:14.326Z,135
2016-02-26T07:49:14.329Z,130
2016-02-26T07:50:14.331Z,130
2016-02-26T07:51:14.334Z,130
2016-02-26T07:52:14.368Z,130
2016-02-26T07:53:14.356Z,130
2016-02-26T07:54:14.342Z,125
2016-02-26T07:55:14.345Z,125
2016-02-26T07:56:14.363Z,125
2016-02-26T07:57:14.194Z,130
2016-02-26T07:58:14.337Z,130
2016-02-26T07:59:14.356Z,130
2016-02-26T08:00:14.359Z,130
2016-02-26T08:01:14.361Z,130
2016-02-26T08:02:14.380Z,130
2016-02-26T08:03:14.366Z,130
2016-02-26T08:04:14.385Z,130
2016-02-26T08:05:14.387Z,125
2016-02-26T08:06:14.390Z,125
2016-02-26T08:07:14.377Z,125
2016-02-26T08:08:14.380Z,130
2016-02-26T08:09:14.383Z,125
2016-02-26T08:10:14.385Z,125
2016-02-26T08:11:14.404Z,125
2016-02-26T08:12:14.407Z,125
2016-02-26T08:13:14.425Z,125
2016-02-26T08:14:14.412Z,125
2016-02-26T08:15:14.446Z,125
2016-02-26T08:16:14.433Z,130
2016-02-26T08:17:14.420Z,125
2016-02-26T08:18:14.439Z,125
2016-02-26T08:19:14.441Z,125
2016-02-26T08:20:14.444Z,125
2016-02-26T08:21:14.431Z,125
2016-02-26T08:22:14.449Z,125
2016-02-26T08:23:14.436Z,125
2016-02-26T08:24:14.439Z,125
2016-02-26T08:25:14.442Z,125
2016-02-26T08:26:14.444Z,125
2016-02-26T08:27:14.447Z,125
2016-02-26T08:28:14.466Z,125
2016-02-26T08:29:14.452Z,125
2016-02-26T08:30:14.471Z,130
2016-02-26T08:31:14.474Z,130
2016-02-26T08:32:14.460Z,130
2016-02-26T08:33:14.463Z,130
2016-02-26T08:34:14.466Z,130
2016-02-26T08:35:14.484Z,130
2016-02-26T08:36:14.471Z,130
2016-02-26T08:37:14.490Z,130
2016-02-26T08:38:14.492Z,130
2016-02-26T08:39:14.526Z,130
2016-02-26T08:40:14.497Z,130
2016-02-26T08:41:14.500Z,130
2016-02-26T08:42:14.503Z,130
2016-02-26T08:43:14.521Z,130
2016-02-26T08:44:14.523Z,130
2016-02-26T08:45:14.512Z,130
2016-02-26T08:46:14.529Z,130
2016-02-26T08:47:14.532Z,130
2016-02-26T08:48:14.550Z,130
2016-02-26T08:49:14.537Z,130
2016-02-26T08:50:14.540Z,130
2016-02-26T08:51:14.542Z,130
2016-02-26T08:52:14.545Z,130
2016-02-26T08:53:14.548Z,130
2016-02-26T08:54:14.535Z,130
2016-02-26T08:55:14.538Z,130
2016-02-26T08:56:14.588Z,130
2016-02-26T08:57:14.575Z,130
2016-02-26T08:58:14.577Z,130
2016-02-26T08:59:14.596Z,130
2016-02-26T09:00:14.583Z,130
2016-02-26T09:01:14.585Z,130
2016-02-26T09:02:14.572Z,130
2016-02-26T09:03:14.591Z,125
2016-02-26T09:04:14.578Z,125
2016-02-26T09:05:14.580Z,125
2016-02-26T09:06:14.583Z,130
2016-02-26T09:07:14.586Z,130
2016-02-26T09:08:14.588Z,130
2016-02-26T09:09:14.607Z,130
2016-02-26T09:10:14.610Z,125
2016-02-26T09:11:14.628Z,125
2016-02-26T09:12:14.615Z,125
2016-02-26T09:13:14.602Z,125
2016-02-26T09:14:14.651Z,125
2016-02-26T09:15:14.623Z,125
2016-02-26T09:16:14.657Z,125
2016-02-26T09:17:14.629Z,125
2016-02-26T09:18:14.631Z,125
2016-02-26T09:19:14.650Z,125
2016-02-26T09:20:14.637Z,120
2016-02-26T09:21:14.639Z,125
2016-02-26T09:22:14.642Z,125
2016-02-26T09:23:14.644Z,125
2016-02-26T09:24:14.647Z,125
2016-02-26T09:25:14.650Z,125
2016-02-26T09:26:14.652Z,125
2016-02-26T09:27:14.655Z,125
2016-02-26T09:28:14.658Z,125
2016-02-26T09:29:14.755Z,125
2016-02-26T09:30:14.679Z,125
2016-02-26T09:31:14.697Z,120
2016-02-26T09:32:14.685Z,120
2016-02-26T09:33:14.687Z,120
2016-02-26T09:34:14.674Z,120
2016-02-26T09:35:14.677Z,120
2016-02-26T09:36:14.695Z,125
2016-02-26T09:37:14.682Z,120
2016-02-26T09:38:14.684Z,125
2016-02-26T09:39:14.688Z,120
2016-02-26T09:40:14.690Z,125
2016-02-26T09:41:14.693Z,120
2016-02-26T09:42:14.712Z,120
2016-02-26T09:43:14.714Z,120
2016-02-26T09:44:14.592Z,120
2016-02-26T09:45:14.719Z,120
2016-02-26T09:46:14.785Z,120
2016-02-26T09:47:14.709Z,125
2016-02-26T09:48:14.711Z,125
2016-02-26T09:49:14.714Z,125
2016-02-26T09:50:14.717Z,125
2016-02-26T09:51:14.720Z,125
2016-02-26T09:52:14.770Z,125
2016-02-26T09:53:14.742Z,125
2016-02-26T09:54:14.744Z,125
2016-02-26T09:55:14.747Z,125
2016-02-26T09:56:14.750Z,125
2016-02-26T09:57:14.736Z,125
2016-02-26T09:58:14.739Z,125
2016-02-26T09:59:14.772Z,125
2016-02-26T10:00:14.806Z,125
2016-02-26T10:01:14.747Z,125
2016-02-26T10:02:14.749Z,125
2016-02-26T10:03:14.752Z,125
2016-02-26T10:04:14.755Z,125
2016-02-26T10:05:14.757Z,125
2016-02-26T10:06:14.791Z,125
2016-02-26T10:07:14.779Z,125
2016-02-26T10:08:14.781Z,120
2016-02-26T10:09:14.768Z,125
2016-02-26T10:10:14.770Z,125
2016-02-26T10:11:14.774Z,125
2016-02-26T10:12:14.760Z,120
2016-02-26T10:13:14.810Z,120
2016-02-26T10:14:14.876Z,125
2016-02-26T10:15:14.801Z,120
2016-02-26T10:16:14.803Z,125
2016-02-26T10:17:14.787Z,125
2016-02-26T10:18:14.825Z,125
2016-02-26T10:19:14.768Z,125
2016-02-26T10:20:14.856Z,120
2016-02-26T10:21:14.753Z,120
2016-02-26T10:22:14.744Z,120
2016-02-26T10:23:14.790Z,120
2016-02-26T10:24:14.741Z,120
2016-02-26T10:25:14.722Z,125
2016-02-26T10:26:14.799Z,120
2016-02-26T10:27:14.736Z,120
2016-02-26T10:28:14.721Z,125
2016-02-26T10:29:14.832Z,125
2016-02-26T10:30:14.739Z,125
2016-02-26T10:31:14.740Z,125
2016-02-26T10:32:14.726Z,125
2016-02-26T10:33:14.744Z,125
2016-02-26T10:34:14.747Z,125
2016-02-26T10:35:14.748Z,130
2016-02-26T10:36:14.751Z,130
2016-02-26T10:37:14.753Z,130
2016-02-26T10:38:14.739Z,130
2016-02-26T10:39:14.757Z,130
2016-02-26T10:40:14.776Z,130
2016-02-26T10:41:14.746Z,130
2016-02-26T10:42:14.749Z,130
2016-02-26T10:43:14.752Z,130
2016-02-26T10:44:14.817Z,135
2016-02-26T10:45:14.804Z,135
2016-02-26T10:46:14.776Z,135
2016-02-26T10:47:14.762Z,130
2016-02-26T10:48:14.765Z,130
2016-02-26T10:49:14.784Z,130
2016-02-26T10:50:14.770Z,130
2016-02-26T10:51:14.774Z,130
2016-02-26T10:52:14.776Z,130
2016-02-26T10:53:14.795Z,130
2016-02-26T10:54:14.781Z,130
2016-02-26T10:55:14.784Z,130
2016-02-26T10:56:14.818Z,135
2016-02-26T10:57:14.805Z,135
2016-02-26T10:58:14.808Z,135
2016-02-26T10:59:14.873Z,135
2016-02-26T11:00:14.829Z,135
2016-02-26T11:01:14.800Z,135
2016-02-26T11:02:14.835Z,135
2016-02-26T11:03:14.821Z,135
2016-02-26T11:04:14.793Z,135
2016-02-26T11:05:14.639Z,135
2016-02-26T11:06:14.798Z,135
2016-02-26T11:07:14.644Z,135
2016-02-26T11:08:14.818Z,135
2016-02-26T11:09:14.822Z,130
2016-02-26T11:10:14.810Z,130
2016-02-26T11:11:14.843Z,130
2016-02-26T11:12:14.673Z,130
2016-02-26T11:13:14.661Z,130
2016-02-26T11:14:14.695Z,130
2016-02-26T11:15:14.807Z,130
2016-02-26T11:16:14.840Z,130
2016-02-26T11:17:14.828Z,130
2016-02-26T11:18:14.815Z,130
2016-02-26T11:19:14.833Z,130
2016-02-26T11:20:14.836Z,130
2016-02-26T11:21:14.854Z,130
2016-02-26T11:22:14.841Z,130
2016-02-26T11:23:14.828Z,130
2016-02-26T11:24:14.830Z,135
2016-02-26T11:25:14.880Z,135
2016-02-26T11:26:14.852Z,135
2016-02-26T11:27:14.839Z,135
2016-02-26T11:28:15.372Z,135
2016-02-26T11:29:14.908Z,135
2016-02-26T11:30:14.847Z,135
2016-02-26T11:31:14.866Z,135
2016-02-26T11:32:14.836Z,135
2016-02-26T11:33:14.839Z,135
2016-02-26T11:34:14.858Z,135
2016-02-26T11:35:14.923Z,135
2016-02-26T11:36:14.879Z,135
2016-02-26T11:37:14.866Z,135
2016-02-26T11:38:14.853Z,135
2016-02-26T11:39:14.888Z,135
2016-02-26T11:40:14.874Z,135
2016-02-26T11:41:14.860Z,135
2016-02-26T11:42:14.864Z,135
2016-02-26T11:43:14.945Z,135
2016-02-26T11:44:14.869Z,135
2016-02-26T11:45:14.950Z,135
2016-02-26T11:46:14.874Z,135
2016-02-26T11:47:14.893Z,135
2016-02-26T11:48:14.896Z,135
2016-02-26T11:49:14.882Z,135
2016-02-26T11:50:14.900Z,135
2016-02-26T11:51:14.873Z,135
2016-02-26T11:52:14.890Z,130
2016-02-26T11:53:14.940Z,130
2016-02-26T11:54:14.881Z,130
2016-02-26T11:55:14.884Z,130
2016-02-26T11:56:14.933Z,125
2016-02-26T11:57:14.936Z,125
2016-02-26T11:58:14.906Z,125
2016-02-26T11:59:14.894Z,125
2016-02-26T12:00:14.912Z,120
2016-02-26T12:01:14.899Z,120
2016-02-26T12:02:14.902Z,120
2016-02-26T12:03:14.905Z,120
2016-02-26T12:04:14.922Z,120
2016-02-26T12:05:14.269Z,115
2016-02-26T12:06:14.944Z,115
2016-02-26T12:07:14.900Z,115
2016-02-26T12:08:14.918Z,115
2016-02-26T12:09:14.905Z,110
2016-02-26T12:10:14.923Z,110
2016-02-26T12:11:14.910Z,110
2016-02-26T12:12:14.913Z,110
2016-02-26T12:13:14.931Z,105
2016-02-26T12:14:14.934Z,105
2016-02-26T12:15:14.937Z,105
2016-02-26T12:16:14.940Z,105
2016-02-26T12:17:14.926Z,100
2016-02-26T12:18:14.929Z,100
2016-02-26T12:19:14.963Z,100
2016-02-26T12:20:14.950Z,100
2016-02-26T12:21:14.953Z,100
2016-02-26T12:22:14.940Z,95
2016-02-26T12:23:14.911Z,95
2016-02-26T12:24:14.945Z,95
2016-02-26T12:25:14.792Z,95
2016-02-26T12:26:14.811Z,95
2016-02-26T12:27:14.938Z,90
2016-02-26T12:28:14.956Z,90
2016-02-26T12:29:14.959Z,90
2016-02-26T12:30:14.961Z,90
2016-02-26T12:31:14.949Z,90
2016-02-26T12:32:14.936Z,90
2016-02-26T12:33:15.236Z,90
2016-02-26T12:34:14.800Z,90
2016-02-26T12:35:14.975Z,90
2016-02-26T12:36:14.962Z,90
2016-02-26T12:37:14.871Z,90
2016-02-26T12:38:14.952Z,85
2016-02-26T12:39:14.955Z,85
2016-02-26T12:40:14.957Z,85
2016-02-26T12:41:14.976Z,85
2016-02-26T12:42:14.963Z,85
2016-02-26T12:43:14.997Z,85
2016-02-26T12:44:14.827Z,85
2016-02-26T12:45:14.971Z,85
2016-02-26T12:46:14.957Z,85
2016-02-26T12:47:14.992Z,85
2016-02-26T12:48:14.963Z,85
2016-02-26T12:49:14.997Z,85
2016-02-26T12:50:14.968Z,85
2016-02-26T12:51:14.971Z,85
2016-02-26T12:52:14.974Z,85
2016-02-26T12:53:14.976Z,85
2016-02-26T12:54:15.839Z,85
2016-02-26T12:55:14.982Z,85
2016-02-26T12:56:14.984Z,85
2016-02-26T12:57:15.019Z,85
2016-02-26T12:58:14.990Z,85
2016-02-26T12:59:14.992Z,85
2016-02-26T13:00:15.495Z,85
2016-02-26T13:01:14.983Z,85
2016-02-26T13:02:14.985Z,85
2016-02-26T13:03:14.989Z,85
2016-02-26T13:04:15.005Z,85
2016-02-26T13:05:14.977Z,85
2016-02-26T13:06:14.996Z,85
2016-02-26T13:07:14.999Z,85
2016-02-26T13:08:15.001Z,85
2016-02-26T13:09:14.988Z,80
2016-02-26T13:10:15.038Z,80
2016-02-26T13:11:14.993Z,80
2016-02-26T13:12:14.996Z,80
2016-02-26T13:13:15.015Z,75
2016-02-26T13:14:14.985Z,75
2016-02-26T13:15:14.988Z,75
2016-02-26T13:16:14.991Z,75
2016-02-26T13:17:15.010Z,75
2016-02-26T13:18:14.996Z,80
2016-02-26T13:19:15.032Z,80
2016-02-26T13:20:15.002Z,80
2016-02-26T13:21:15.004Z,80
2016-02-26T13:22:15.007Z,80
2016-02-26T13:23:14.994Z,80
2016-02-26T13:24:15.029Z,80
2016-02-26T13:25:15.062Z,85
2016-02-26T13:26:15.003Z,85
2016-02-26T13:27:15.020Z,90
2016-02-26T13:28:15.023Z,90
2016-02-26T13:29:15.043Z,90
2016-02-26T13:30:15.014Z,95
2016-02-26T13:31:15.094Z,95
2016-02-26T13:32:15.050Z,100
2016-02-26T13:33:15.022Z,100
2016-02-26T13:34:15.040Z,105
2016-02-26T13:35:15.028Z,105
2016-02-26T13:36:15.045Z,105
2016-02-26T13:37:15.017Z,105
2016-02-26T13:38:14.863Z,105
2016-02-26T13:39:15.038Z,105
2016-02-26T13:40:15.025Z,110
2016-02-26T13:41:15.059Z,110
2016-02-26T13:42:15.015Z,105
2016-02-26T13:43:15.049Z,105
2016-02-26T13:44:15.040Z,105
2016-02-26T13:45:15.059Z,105
2016-02-26T13:46:15.124Z,100
2016-02-26T13:47:15.065Z,100
2016-02-26T13:48:15.035Z,100
2016-02-26T13:49:15.085Z,100
2016-02-26T13:50:15.056Z,100
2016-02-26T13:51:15.075Z,100
2016-02-26T13:52:15.047Z,100
2016-02-26T13:53:15.034Z,95
2016-02-26T13:54:15.037Z,95
2016-02-26T13:55:15.055Z,100
2016-02-26T13:56:15.042Z,100
2016-02-26T13:57:15.045Z,100
2016-02-26T13:58:15.063Z,100
2016-02-26T13:59:15.034Z,100
2016-02-26T14:00:15.068Z,100
2016-02-26T14:01:15.056Z,105
2016-02-26T14:02:15.058Z,105
2016-02-26T14:03:15.076Z,105
2016-02-26T14:04:15.064Z,105
2016-02-26T14:05:15.066Z,105
2016-02-26T14:06:15.069Z,105
2016-02-26T14:07:15.056Z,105
2016-02-26T14:08:15.044Z,105
2016-02-26T14:09:15.077Z,105
2016-02-26T14:10:15.064Z,105
2016-02-26T14:11:15.083Z,105
2016-02-26T14:12:15.069Z,105
2016-02-26T14:13:15.057Z,105
2016-02-26T14:14:15.060Z,105
2016-02-26T14:15:15.062Z,105